Salina, KS (67401)

6:14 AM CST on December 06, 2016 (GMT -0600)
Central Salina | | Change Station

Elev 1243 ft 38.82 °N, 97.62 °W | Updated 8 seconds ago

Clear
Clear
27.7 °F
Feels Like 28 °F
N
2.2
Wind Variable Wind from WNW
Gusts 4.3 mph

Today
High -- | Low -- °F
--% Chance of Precip.
Yesterday
High -- | Low -- °F
Precip. -- in
Pressure 30.05 in
Visibility 10.0 miles
Clouds Clear
Windchill 28 °F
Dew Point 20 °F
Humidity 73%
Rainfall 0.00 in
Snow Depth Not available.
7:35 AM 5:08 PM
Waxing Crescent, 41% visible
METAR KSLN 061153Z 34011KT 10SM CLR M01/M07 A3002 RMK AO2 SLP175 T10111072 10033 21011 51020
Pressure 30.05 in
Visibility 10.0 miles
Clouds Clear
Windchill 28 °F
Dew Point 20 °F
Humidity 73%
Rainfall 0.00 in
Snow Depth Not available.
7:35 AM 5:08 PM
Waxing Crescent, 41% visible
METAR KSLN 061153Z 34011KT 10SM CLR M01/M07 A3002 RMK AO2 SLP175 T10111072 10033 21011 51020

10-Day Weather Forecast

Almanac

Astronomy

Dec. 06, 2016 Rise Set
Actual Time
Civil Twilight
Nautical Twilight
Astronomical Twilight
Moon
Length of Visible Light
Length of Day
Tomorrow will be .
, % of the Moon is Illuminated

Today's Extremes

State Highs State Lows

Community

WunderPhotos

Upload Photos

1,955,936 photos uploaded!

WunderBlog® & News

Nearby

Air Quality

  Air Quality AQ Index Pollutant
Not available.

Snow Depth

Station Depth Elevation

Earthquake Activity

City Distance Mag. Time & Date
Minimum magnitude displayed is 2.5.

Coastal Water Temperatures

Place Temperature

Stations

Nearby Weather Stations

Station Location Temp. Windchill Dew Point Humidity Wind Precip. Elev Updated Type
                   

Watches & Warnings

There are currently no watches in effect.